Pagrindinis puslapis
METAR-TAF:

METAR-TAF

Oro uostai :

Billund, Danija

platuma: 55-44N, ilguma: 009-10E, Aukštis: 75 m

Dabartinis oras

Ataskaita buvo paskelbta 28 minutes, ne 03:50 UTC
Vėjas 8 kt iš Vakarų
Temperatūra 5°C
Drėgmė 93%
Slėgis 1026 hPa
Matomumas 10 km arba daugiau

METAR: EKBI 070350Z AUTO 26008KT 9999 NCD 05/04 Q1026

Laikas: 06:18 (04:18 UTC)

Prognozė

Ataskaita buvo paskelbta 5 valandos ir 16 minutes, ne 23:02 UTC
Prognozė galioja nuo 07 metu 00 UTC su 07 metu 24 UTC
Vėjas 8 kt iš Vakarų
Matomumas: 4000 m
Su prošvaistėmis ne aukštis 800 ft
lietus, dulksna, rūkana
Tapsmas
nuo 07 metu 00 UTC su 07 metu 02 UTC
Matomumas 10 km arba daugiau
nėra debesų žemiau 1500 m ir nėra kamuolinių lietaus debesų

TAF: EKBI 062302Z 0700/0724 28008KT 4000 -RADZ BR BKN008 BECMG 0700/0702 CAVOK

Orai ataskaitas ir orų prognozės (METAR, TAF).

turimą stotys yra geltonos ir raudonos taškus žemėlapyje.

Perkelti pele per norėdami pamatyti stoties vardą.

Tada spustelėkite, norėdami matyti oro stebėjimo ir prognozės.

Norėdami pakeisti žemėlapį: spustelėkite ant žalios mygtukų su juodo kryžiaus žemyn,; žalią mygtuką su brūkšneliu, jei norite nutolinti; arba žalių rodyklių gretimoms žemėlapius.


METAR-TAF: